Skip Navigation

Christman Field Latest Observations

Switch to metric unitsOther observation timesWeekly graphs

Date Time
MST
Temp
°F
RH
%
DewPt
°F
Wind
mph
Dir
°
Gust
mph
Dir
°
Press
in Hg
Solar
W/m^2
Prec
in
2019-08-24 14:50 87.1 14.0 32.2 7.5 161 10.5 143 24.805 685.7 0.00
2019-08-24 14:45 88.2 13.7 32.5 6.1 157 10.8 147 24.802 468.5 0.00
2019-08-24 14:40 87.5 13.1 30.8 3.8 206 8.3 322 24.802 349.3 0.00
2019-08-24 14:35 87.6 12.7 30.1 3.7 323 7.5 326 24.802 232.7 0.00
2019-08-24 14:30 89.2 12.4 30.8 3.7 331 7.5 332 24.800 421.5 0.00
2019-08-24 14:25 89.6 12.2 30.7 3.3 48 6.5 86 24.800 798.7 0.00
2019-08-24 14:20 89.5 12.0 30.2 5.7 355 10.3 20 24.801 714.9 0.00
2019-08-24 14:15 89.0 12.2 30.4 5.0 33 9.2 353 24.802 789.3 0.00
2019-08-24 14:10 87.5 12.4 29.5 4.9 346 8.6 349 24.803 729.3 0.00
2019-08-24 14:05 86.5 12.8 29.6 6.4 332 8.8 344 24.806 635.1 0.00
2019-08-24 14:00 85.6 13.1 29.3 7.9 350 9.8 333 24.808 522.8 0.00
2019-08-24 13:55 85.2 13.8 30.3 8.3 350 15.0 340 24.809 192.1 0.00
2019-08-24 13:50 85.7 13.3 29.7 9.9 1 12.4 345 24.812 300.1 0.00
2019-08-24 13:45 87.7 12.2 29.3 7.8 13 12.0 359 24.813 494.8 0.00
2019-08-24 13:40 87.8 12.1 29.1 9.2 338 16.5 335 24.817 906.0 0.00
2019-08-24 13:35 85.9 12.8 29.1 6.2 6 10.0 339 24.820 744.8 0.00
2019-08-24 13:30 85.4 13.6 30.1 9.2 7 15.2 337 24.822 374.7 0.00
2019-08-24 13:25 86.3 12.6 28.9 8.2 274 13.5 281 24.823 563.5 0.00
2019-08-24 13:20 85.3 12.8 28.7 12.1 295 17.1 296 24.823 586.3 0.00
2019-08-24 13:15 84.5 13.1 28.6 9.9 301 16.4 314 24.826 390.2 0.00
2019-08-24 13:10 84.8 12.7 28.0 9.4 275 13.7 299 24.831 403.4 0.00
2019-08-24 13:05 84.4 13.1 28.4 7.8 280 12.5 264 24.833 497.9 0.00
2019-08-24 13:00 83.7 13.4 28.4 11.0 277 14.5 281 24.835 359.0 0.00
2019-08-24 12:55 83.3 14.9 30.7 4.3 326 7.7 313 24.837 316.0 0.00
2019-08-24 12:50 83.2 13.8 28.8 6.8 317 11.0 317 24.837 319.6 0.00
2019-08-24 12:45 83.2 13.8 28.8 4.5 313 10.0 325 24.836 295.6 0.00
2019-08-24 12:40 83.1 14.2 29.3 5.1 330 9.3 313 24.837 324.4 0.00
2019-08-24 12:35 83.8 13.5 28.7 7.7 313 10.9 312 24.838 448.5 0.00
2019-08-24 12:30 83.3 14.1 29.4 9.7 293 14.1 317 24.837 417.8 0.00
2019-08-24 12:25 83.3 14.3 29.7 8.5 306 13.9 347 24.838 420.9 0.00